Time;durP1;ratioP1;P1;durP2;ratioP2;P2;SDS_P1;SDS_P2;PMS_P1;PMS_P2;Temp;Humidity;BMP_temperature;BMP_pressure;BME280_temperature;BME280_humidity;BME280_pressure;Samples;Min_cycle;Max_cycle;Signal;HPM_P1;HPM_P2
2023/08/26 00:00:35;;;;;;;;;;;;;;;23.45;60.54;100849.34;5064012;28;19927;-43
2023/08/26 00:03:01;;;;;;;;;;;;;;;23.46;60.65;100852.91;5064083;28;19923;-45
2023/08/26 00:05:26;;;;;;;;;;;;;;;23.45;60.81;100854.78;5063736;28;19913;-43
2023/08/26 00:07:51;;;;;;;;;;;;;;;23.44;60.60;100846.81;5063804;28;19912;-44
2023/08/26 00:10:17;;;;;;;;;;;;;;;23.44;60.59;100855.78;5063618;28;19935;-44
2023/08/26 00:12:42;;;;;;;;;;;;;;;23.43;60.63;100856.84;5069446;28;19994;-46
2023/08/26 00:15:08;;;;;;;;;;;;;;;23.43;60.57;100845.97;5063397;28;19948;-47
2023/08/26 00:17:33;;;;;;;;;;;;;;;23.42;60.61;100838.88;5063869;28;19935;-43
2023/08/26 00:19:58;;;;;;;;;;;;;;;23.43;60.55;100845.97;5063568;28;19925;-43
2023/08/26 00:22:24;;;;;;;;;;;;;;;23.42;60.68;100857.88;5061864;28;20025;-46
2023/08/26 00:24:49;;;;;;;;;;;;;;;23.41;60.37;100841.81;5063687;28;19924;-45
2023/08/26 00:27:15;;;;;;;;;;;;;;;23.42;60.55;100840.75;5063481;28;19952;-43
2023/08/26 00:29:40;;;;;;;;;;;;;;;23.41;60.45;100841.81;5063436;28;19927;-44
2023/08/26 00:32:05;;;;;;;;;;;;;;;23.40;60.52;100835.53;5063781;28;19917;-45
2023/08/26 00:34:30;;;;;;;;;;;;;;;23.40;60.51;100830.09;5062960;28;19917;-45
2023/08/26 00:36:56;;;;;;;;;;;;;;;23.39;60.48;100820.28;5063895;28;19920;-45
2023/08/26 00:39:21;;;;;;;;;;;;;;;23.40;60.41;100812.97;5066557;28;19943;-44
2023/08/26 00:41:46;;;;;;;;;;;;;;;23.39;60.63;100817.56;5067163;28;19924;-46
2023/08/26 00:44:11;;;;;;;;;;;;;;;23.39;60.45;100822.16;5067313;28;19917;-44
2023/08/26 00:46:37;;;;;;;;;;;;;;;23.39;60.34;100819.44;5067146;28;19924;-47
2023/08/26 00:49:02;;;;;;;;;;;;;;;23.39;60.59;100822.16;5067473;28;19920;-44
2023/08/26 00:51:27;;;;;;;;;;;;;;;23.38;60.48;100820.50;5067549;28;19917;-44
2023/08/26 00:53:53;;;;;;;;;;;;;;;23.38;60.41;100824.03;5099865;28;19927;-43
2023/08/26 00:56:18;;;;;;;;;;;;;;;23.38;60.21;100815.06;5099217;28;19948;-43
2023/08/26 00:58:43;;;;;;;;;;;;;;;23.37;60.54;100813.41;5067096;28;19928;-45
2023/08/26 01:01:08;;;;;;;;;;;;;;;23.37;60.42;100810.69;5099325;28;19917;-45
2023/08/26 01:03:34;;;;;;;;;;;;;;;23.35;60.29;100813.59;5067094;28;19935;-47
2023/08/26 01:05:59;;;;;;;;;;;;;;;23.36;60.35;100817.13;5066572;28;20320;-44
2023/08/26 01:08:24;;;;;;;;;;;;;;;23.36;60.26;100817.13;5064789;28;19913;-43
2023/08/26 01:11:08;;;;;;;;;;;;;;;23.34;60.39;100816.50;5066490;28;20554;-43
2023/08/26 01:13:41;;;;;;;;;;;;;;;23.34;60.39;100820.06;5064062;28;19909;-44
2023/08/26 01:16:06;;;;;;;;;;;;;;;23.33;60.40;100826.53;5099474;28;19924;-43
2023/08/26 01:18:31;;;;;;;;;;;;;;;23.33;60.27;100818.38;5066804;28;19921;-47
2023/08/26 01:20:57;;;;;;;;;;;;;;;23.33;60.33;100821.09;5099555;28;20292;-43
2023/08/26 01:23:49;;;;;;;;;;;;;;;23.33;60.46;100823.81;5099161;28;19934;-44
2023/08/26 01:26:15;;;;;;;;;;;;;;;23.33;60.25;100814.84;5065802;28;20393;-43
2023/08/26 01:28:40;;;;;;;;;;;;;;;23.32;60.21;100819.44;5065367;28;20258;-43
2023/08/26 01:31:11;;;;;;;;;;;;;;;23.32;60.32;100815.84;5066867;28;20411;-44
2023/08/26 01:33:42;;;;;;;;;;;;;;;23.31;60.13;100815.03;5066844;28;19923;-49
2023/08/26 01:36:08;;;;;;;;;;;;;;;23.31;60.31;100815.03;5062413;28;19917;-45
2023/08/26 01:38:33;;;;;;;;;;;;;;;23.30;60.15;100807.94;5062699;28;19921;-50
2023/08/26 01:40:59;;;;;;;;;;;;;;;23.30;60.28;100809.81;5066380;28;20044;-48
2023/08/26 01:43:24;;;;;;;;;;;;;;;23.29;60.36;100811.69;5098885;28;19951;-45
2023/08/26 01:45:52;;;;;;;;;;;;;;;23.30;60.35;100812.53;5098954;28;20381;-52
2023/08/26 01:48:17;;;;;;;;;;;;;;;23.28;60.08;100814.56;5098697;28;19912;-47
2023/08/26 01:50:43;;;;;;;;;;;;;;;23.27;60.04;100819.16;5065188;28;19971;-48
2023/08/26 01:53:08;;;;;;;;;;;;;;;23.27;59.93;100805.59;5066353;28;19967;-45
2023/08/26 01:55:34;;;;;;;;;;;;;;;23.27;60.13;100804.78;5066220;28;19935;-48
2023/08/26 01:57:59;;;;;;;;;;;;;;;23.26;60.12;100803.94;5066269;28;20403;-44
2023/08/26 02:00:24;;;;;;;;;;;;;;;23.26;60.20;100808.53;5065942;28;20455;-49
2023/08/26 02:02:50;;;;;;;;;;;;;;;23.25;59.81;100802.28;5066052;28;20240;-47
2023/08/26 02:05:15;;;;;;;;;;;;;;;23.25;60.10;100810.41;5064462;28;19913;-48
2023/08/26 02:07:40;;;;;;;;;;;;;;;23.25;60.05;100810.41;5064313;28;19941;-48
2023/08/26 02:10:06;;;;;;;;;;;;;;;23.26;60.20;100813.97;5066032;28;19999;-47
2023/08/26 02:12:32;;;;;;;;;;;;;;;23.25;60.00;100809.56;5065713;28;19917;-49
2023/08/26 02:14:57;;;;;;;;;;;;;;;23.24;60.02;100805.19;5066125;28;19917;-47
2023/08/26 02:17:22;;;;;;;;;;;;;;;23.23;60.12;100804.31;5065820;28;20287;-45
2023/08/26 02:19:47;;;;;;;;;;;;;;;23.23;60.00;100808.91;5065649;28;19917;-45
2023/08/26 02:22:12;;;;;;;;;;;;;;;23.22;60.07;100804.53;5064514;28;19955;-49
2023/08/26 02:24:37;;;;;;;;;;;;;;;23.23;60.03;100803.50;5065471;28;19921;-48
2023/08/26 02:27:03;;;;;;;;;;;;;;;23.21;60.01;100801.00;5066765;28;19927;-50
2023/08/26 02:29:29;;;;;;;;;;;;;;;23.21;60.04;100801.00;5065585;28;19917;-50
2023/08/26 02:31:55;;;;;;;;;;;;;;;23.21;59.83;100801.00;5065362;28;19917;-48
2023/08/26 02:34:20;;;;;;;;;;;;;;;23.20;60.05;100796.63;5065425;28;19955;-48
2023/08/26 02:36:45;;;;;;;;;;;;;;;23.20;59.78;100804.75;5065260;28;19940;-47
2023/08/26 02:39:10;;;;;;;;;;;;;;;23.19;59.89;100806.63;5065031;28;19921;-44
2023/08/26 02:41:35;;;;;;;;;;;;;;;23.20;59.99;100815.59;5064702;28;19913;-46
2023/08/26 02:44:01;;;;;;;;;;;;;;;23.19;59.84;100816.63;5065198;28;19916;-48
2023/08/26 02:46:26;;;;;;;;;;;;;;;23.18;59.81;100815.78;5065708;28;19946;-50
2023/08/26 02:48:51;;;;;;;;;;;;;;;23.17;59.78;100819.53;5065036;28;19976;-48
2023/08/26 02:51:16;;;;;;;;;;;;;;;23.18;59.97;100820.38;5065807;28;19920;-47
2023/08/26 02:53:41;;;;;;;;;;;;;;;23.17;59.79;100802.44;5065168;28;19932;-45
2023/08/26 02:56:07;;;;;;;;;;;;;;;23.17;59.67;100810.56;5065042;28;19913;-46
2023/08/26 02:58:33;;;;;;;;;;;;;;;23.17;59.61;100810.56;5065106;28;19947;-50
2023/08/26 03:01:01;;;;;;;;;;;;;;;23.17;59.74;100810.56;5065030;28;19925;-43
2023/08/26 03:03:26;;;;;;;;;;;;;;;23.16;59.88;100803.47;5065250;28;19952;-44
2023/08/26 03:05:55;;;;;;;;;;;;;;;23.15;59.81;100808.06;5064421;28;19917;-43
2023/08/26 03:08:20;;;;;;;;;;;;;;;23.14;59.71;100808.25;5064991;28;19913;-46
2023/08/26 03:10:54;;;;;;;;;;;;;;;23.14;59.99;100814.50;5064299;28;19939;-43
2023/08/26 03:13:20;;;;;;;;;;;;;;;23.15;59.79;100815.34;5063179;28;19913;-46
2023/08/26 03:15:45;;;;;;;;;;;;;;;23.14;59.78;100813.66;5064532;28;19960;-45
2023/08/26 03:18:11;;;;;;;;;;;;;;;23.14;59.52;100813.66;5064556;28;19932;-44
2023/08/26 03:20:36;;;;;;;;;;;;;;;23.13;59.65;100812.00;5064822;28;19913;-46
2023/08/26 03:23:01;;;;;;;;;;;;;;;23.12;59.60;100816.59;5064752;28;19913;-44
2023/08/26 03:25:27;;;;;;;;;;;;;;;23.12;59.42;100816.59;5064338;28;19921;-44
2023/08/26 03:27:52;;;;;;;;;;;;;;;23.11;59.70;100822.22;5062913;28;19921;-44
2023/08/26 03:30:17;;;;;;;;;;;;;;;23.11;59.75;100814.09;5064430;28;19932;-44
2023/08/26 03:32:42;;;;;;;;;;;;;;;23.11;59.71;100823.06;5064721;28;19924;-44
2023/08/26 03:35:08;;;;;;;;;;;;;;;23.10;59.64;100821.34;5064340;28;19916;-44
2023/08/26 03:37:33;;;;;;;;;;;;;;;23.10;59.55;100820.53;5064502;28;19959;-46
2023/08/26 03:39:59;;;;;;;;;;;;;;;23.10;59.72;100821.34;5064428;28;19917;-43
2023/08/26 03:42:25;;;;;;;;;;;;;;;23.10;59.67;100817.81;5064077;28;19913;-43
2023/08/26 03:44:50;;;;;;;;;;;;;;;23.09;59.49;100816.97;5064369;28;19912;-45
2023/08/26 03:47:15;;;;;;;;;;;;;;;23.09;59.46;100821.56;5064514;28;19940;-43
2023/08/26 03:49:40;;;;;;;;;;;;;;;23.08;59.60;100820.72;5062515;28;20188;-43
2023/08/26 03:52:06;;;;;;;;;;;;;;;23.08;59.49;100823.44;5063985;28;19917;-43
2023/08/26 03:54:31;;;;;;;;;;;;;;;23.07;59.45;100827.19;5064164;28;20275;-45
2023/08/26 03:56:56;;;;;;;;;;;;;;;23.07;59.39;100821.78;5063187;28;19913;-47
2023/08/26 03:59:21;;;;;;;;;;;;;;;23.07;59.43;100829.06;5063407;28;19931;-47
2023/08/26 04:01:47;;;;;;;;;;;;;;;23.07;59.44;100826.38;5064055;28;19913;-45
2023/08/26 04:04:12;;;;;;;;;;;;;;;23.06;59.43;100830.94;5063451;28;19917;-44
2023/08/26 04:06:37;;;;;;;;;;;;;;;23.07;59.25;100829.06;5064087;28;19935;-48
2023/08/26 04:09:03;;;;;;;;;;;;;;;23.06;59.26;100827.38;5063714;28;19920;-44
2023/08/26 04:11:28;;;;;;;;;;;;;;;23.05;59.52;100831.97;5062960;28;19916;-44
2023/08/26 04:13:54;;;;;;;;;;;;;;;23.04;59.46;100835.72;5063494;28;19986;-44
2023/08/26 04:16:20;;;;;;;;;;;;;;;23.04;59.27;100833.00;5063773;28;19912;-46
2023/08/26 04:18:46;;;;;;;;;;;;;;;23.03;59.28;100844.91;5061906;28;20008;-43
2023/08/26 04:21:11;;;;;;;;;;;;;;;23.04;59.40;100851.16;5061749;28;19920;-45
2023/08/26 04:23:36;;;;;;;;;;;;;;;23.04;59.42;100848.44;5063956;28;20024;-45
2023/08/26 04:26:04;;;;;;;;;;;;;;;23.04;59.31;100843.84;5062811;28;19921;-44
2023/08/26 04:28:30;;;;;;;;;;;;;;;23.03;59.48;100844.91;5062640;28;20477;-47
2023/08/26 04:30:56;;;;;;;;;;;;;;;23.03;59.50;100844.91;5063361;28;19939;-49
2023/08/26 04:33:21;;;;;;;;;;;;;;;23.03;59.43;100847.63;5096081;28;19927;-44
2023/08/26 04:35:47;;;;;;;;;;;;;;;23.03;59.35;100850.31;5063275;28;19912;-46
2023/08/26 04:38:13;;;;;;;;;;;;;;;23.03;59.47;100853.03;5063346;28;19917;-46
2023/08/26 04:40:38;;;;;;;;;;;;;;;23.03;59.77;100853.03;5062501;28;19916;-49
2023/08/26 04:43:03;;;;;;;;;;;;;;;23.03;59.62;100855.75;5062994;28;19920;-43
2023/08/26 04:45:29;;;;;;;;;;;;;;;23.03;59.69;100857.63;5062782;28;19924;-47
2023/08/26 04:47:54;;;;;;;;;;;;;;;23.03;59.94;100863.88;5063283;28;19963;-48
2023/08/26 04:50:19;;;;;;;;;;;;;;;23.03;59.88;100866.59;5063072;28;19988;-45
2023/08/26 04:52:44;;;;;;;;;;;;;;;23.04;60.01;100870.16;5063347;28;19920;-44
2023/08/26 04:55:10;;;;;;;;;;;;;;;23.03;60.20;100877.44;5062299;28;20420;-43
2023/08/26 04:57:35;;;;;;;;;;;;;;;23.04;60.08;100883.69;5062258;28;19917;-44
2023/08/26 05:00:00;;;;;;;;;;;;;;;23.02;60.17;100881.16;5062690;28;19920;-44
2023/08/26 05:02:25;;;;;;;;;;;;;;;23.03;59.97;100890.16;5062582;28;19935;-46
2023/08/26 05:04:51;;;;;;;;;;;;;;;23.03;59.98;100892.88;5061804;28;20054;-44
2023/08/26 05:07:17;;;;;;;;;;;;;;;23.03;60.15;100898.31;5058975;28;19917;-45
2023/08/26 05:09:42;;;;;;;;;;;;;;;23.03;59.87;100893.72;5063280;28;19913;-47
2023/08/26 05:12:07;;;;;;;;;;;;;;;23.03;59.98;100882.03;5062394;28;19913;-45
2023/08/26 05:14:33;;;;;;;;;;;;;;;23.03;60.11;100884.75;5063074;28;19917;-43
2023/08/26 05:16:58;;;;;;;;;;;;;;;23.03;59.89;100890.16;5063315;28;19927;-45
2023/08/26 05:19:23;;;;;;;;;;;;;;;23.02;60.07;100894.72;5062830;28;19920;-44
2023/08/26 05:21:48;;;;;;;;;;;;;;;23.02;59.97;100900.16;5062678;28;19917;-45
2023/08/26 05:24:13;;;;;;;;;;;;;;;23.02;59.92;100896.59;5064034;28;19924;-44
2023/08/26 05:26:39;;;;;;;;;;;;;;;23.01;59.93;100894.94;5066492;28;19917;-45
2023/08/26 05:29:04;;;;;;;;;;;;;;;23.02;60.35;100902.84;5066900;28;19912;-44
2023/08/26 05:31:29;;;;;;;;;;;;;;;23.01;60.11;100900.34;5066310;28;20281;-45
2023/08/26 05:33:55;;;;;;;;;;;;;;;23.01;60.40;100903.91;5064987;28;20361;-48
2023/08/26 05:36:21;;;;;;;;;;;;;;;23.01;60.05;100903.91;5066473;28;19983;-44
2023/08/26 05:38:46;;;;;;;;;;;;;;;23.00;60.36;100907.66;5066645;28;19917;-45
2023/08/26 05:41:11;;;;;;;;;;;;;;;23.01;60.23;100913.91;5065215;28;20255;-45
2023/08/26 05:43:36;;;;;;;;;;;;;;;23.02;60.17;100913.69;5066216;28;19948;-44
2023/08/26 05:46:02;;;;;;;;;;;;;;;23.01;60.21;100920.16;5066596;28;19913;-47
2023/08/26 05:48:27;;;;;;;;;;;;;;;23.01;60.25;100920.16;5066325;28;19924;-47
2023/08/26 05:50:52;;;;;;;;;;;;;;;23.01;60.30;100920.16;5066250;28;19913;-48
2023/08/26 05:53:17;;;;;;;;;;;;;;;23.00;60.22;100913.06;5065932;28;19920;-47
2023/08/26 05:55:43;;;;;;;;;;;;;;;23.00;60.19;100914.94;5065901;28;19920;-47
2023/08/26 05:58:08;;;;;;;;;;;;;;;23.00;60.32;100921.22;5065903;28;19973;-45
2023/08/26 06:00:34;;;;;;;;;;;;;;;23.00;60.36;100917.66;5066089;28;19912;-46
2023/08/26 06:02:59;;;;;;;;;;;;;;;23.00;60.29;100923.09;5065484;28;19951;-48
2023/08/26 06:05:24;;;;;;;;;;;;;;;23.00;60.36;100926.63;5065532;28;19921;-49
2023/08/26 06:07:51;;;;;;;;;;;;;;;22.99;60.22;100927.69;5065801;28;20374;-50
2023/08/26 06:10:16;;;;;;;;;;;;;;;23.00;60.11;100923.09;5065119;28;19917;-48
2023/08/26 06:12:41;;;;;;;;;;;;;;;23.00;60.37;100920.38;5097556;28;19936;-49
2023/08/26 06:15:07;;;;;;;;;;;;;;;23.00;60.42;100917.66;5065807;28;19913;-47
2023/08/26 06:17:34;;;;;;;;;;;;;;;23.00;60.39;100914.94;5065607;28;20704;-49
2023/08/26 06:19:59;;;;;;;;;;;;;;;22.99;60.27;100924.97;5065067;28;19932;-47
2023/08/26 06:22:24;;;;;;;;;;;;;;;22.99;60.12;100918.72;5065723;28;19913;-48
2023/08/26 06:24:49;;;;;;;;;;;;;;;22.99;60.25;100924.13;5065562;28;19921;-47
2023/08/26 06:27:15;;;;;;;;;;;;;;;22.99;60.07;100924.13;5063696;28;19927;-48
2023/08/26 06:29:44;;;;;;;;;;;;;;;22.98;59.99;100920.59;5062007;28;19920;-49
2023/08/26 06:32:09;;;;;;;;;;;;;;;22.98;59.99;100917.00;5061490;28;19913;-48
2023/08/26 06:34:35;;;;;;;;;;;;;;;22.98;59.94;100930.56;5064974;28;19923;-50
2023/08/26 06:37:00;;;;;;;;;;;;;;;22.95;60.13;100910.94;5064771;28;19956;-48
2023/08/26 06:39:26;;;;;;;;;;;;;;;22.98;59.99;100917.00;5062851;28;19920;-46
2023/08/26 06:41:51;;;;;;;;;;;;;;;22.97;59.88;100915.34;5064690;28;20349;-49
2023/08/26 06:44:16;;;;;;;;;;;;;;;22.97;59.88;100915.34;5065412;28;19923;-50
2023/08/26 06:46:41;;;;;;;;;;;;;;;22.97;59.92;100918.03;5065114;28;20324;-49
2023/08/26 06:49:07;;;;;;;;;;;;;;;22.96;60.14;100917.22;5064394;28;19917;-50
2023/08/26 06:51:32;;;;;;;;;;;;;;;22.97;59.64;100920.75;5065305;28;19913;-47
2023/08/26 06:53:57;;;;;;;;;;;;;;;22.97;59.89;100920.75;5064711;28;20004;-49
2023/08/26 06:56:23;;;;;;;;;;;;;;;22.97;59.88;100927.00;5063018;28;19917;-47
2023/08/26 06:58:48;;;;;;;;;;;;;;;22.97;59.75;100926.19;5064291;28;19920;-48
2023/08/26 07:01:13;;;;;;;;;;;;;;;22.96;59.62;100925.34;5063272;28;19921;-47
2023/08/26 07:03:39;;;;;;;;;;;;;;;22.95;59.64;100913.66;5064956;28;19913;-44
2023/08/26 07:06:04;;;;;;;;;;;;;;;22.94;59.97;100925.56;5095098;28;20374;-45
2023/08/26 07:08:29;;;;;;;;;;;;;;;22.94;60.11;100925.56;5064034;28;19913;-47
2023/08/26 07:10:54;;;;;;;;;;;;;;;22.94;60.15;100933.69;5063837;28;19913;-45
2023/08/26 07:13:19;;;;;;;;;;;;;;;22.95;59.75;100931.81;5063655;28;19919;-57
2023/08/26 07:15:44;;;;;;;;;;;;;;;22.95;59.72;100929.09;5064335;28;19932;-57
2023/08/26 07:18:10;;;;;;;;;;;;;;;22.94;59.62;100922.84;5064005;28;19916;-57
2023/08/26 07:20:35;;;;;;;;;;;;;;;22.94;59.75;100928.25;5064097;28;19948;-58
2023/08/26 07:23:00;;;;;;;;;;;;;;;22.94;59.95;100925.56;5064610;28;19939;-54
2023/08/26 07:25:26;;;;;;;;;;;;;;;22.94;59.90;100924.72;5063908;28;19931;-57
2023/08/26 07:27:51;;;;;;;;;;;;;;;22.93;59.89;100926.56;5063749;28;19944;-55
2023/08/26 07:30:16;;;;;;;;;;;;;;;22.93;59.86;100928.44;5064054;28;19925;-57
2023/08/26 07:32:42;;;;;;;;;;;;;;;22.87;60.00;100921.91;5064202;28;20335;-57
2023/08/26 07:35:07;;;;;;;;;;;;;;;22.93;60.08;100926.56;5062167;28;19940;-58
2023/08/26 07:37:33;;;;;;;;;;;;;;;22.93;59.85;100925.72;5063915;28;19912;-49
2023/08/26 07:39:59;;;;;;;;;;;;;;;22.93;59.85;100920.31;5063400;28;19916;-51
2023/08/26 07:42:24;;;;;;;;;;;;;;;22.93;59.75;100921.13;5063185;28;19913;-46
2023/08/26 07:44:50;;;;;;;;;;;;;;;22.93;59.90;100918.44;5063639;28;20333;-49
2023/08/26 07:47:15;;;;;;;;;;;;;;;22.94;59.72;100927.44;5063194;28;19947;-50
2023/08/26 07:49:40;;;;;;;;;;;;;;;22.94;59.69;100925.56;5062988;28;20374;-45
2023/08/26 07:52:05;;;;;;;;;;;;;;;22.93;59.98;100929.28;5059655;28;19920;-50
2023/08/26 07:54:31;;;;;;;;;;;;;;;22.94;59.70;100938.28;5062071;28;20282;-49
2023/08/26 07:56:56;;;;;;;;;;;;;;;22.94;59.92;100939.09;5070356;28;20207;-49
2023/08/26 07:59:21;;;;;;;;;;;;;;;22.94;59.42;100946.41;5063588;28;20373;-50
2023/08/26 08:01:47;;;;;;;;;;;;;;;22.94;59.76;100944.53;5096011;28;19917;-49
2023/08/26 08:04:13;;;;;;;;;;;;;;;22.94;59.50;100960.81;5063197;28;19920;-50
2023/08/26 08:06:38;;;;;;;;;;;;;;;22.95;59.71;100954.34;5063714;28;19916;-48
2023/08/26 08:09:03;;;;;;;;;;;;;;;22.95;59.74;100953.50;5063098;28;19913;-46
2023/08/26 08:11:28;;;;;;;;;;;;;;;22.95;59.72;100956.22;5062949;28;20000;-50
2023/08/26 08:13:54;;;;;;;;;;;;;;;22.95;59.82;100958.94;5063570;28;19920;-48
2023/08/26 08:16:19;;;;;;;;;;;;;;;22.97;59.78;100969.56;5063316;28;19923;-49
2023/08/26 08:18:44;;;;;;;;;;;;;;;22.95;59.70;100975.19;5063072;28;20459;-49
2023/08/26 08:21:09;;;;;;;;;;;;;;;22.97;59.76;100972.28;5063123;28;19913;-45
2023/08/26 08:23:35;;;;;;;;;;;;;;;22.97;59.75;100983.13;5063204;28;19912;-45
2023/08/26 08:26:01;;;;;;;;;;;;;;;22.97;59.90;100983.13;5062188;28;20003;-44
2023/08/26 08:28:26;;;;;;;;;;;;;;;22.97;59.71;100981.25;5063426;28;19917;-44
2023/08/26 08:30:51;;;;;;;;;;;;;;;22.97;59.63;100986.66;5062974;28;19980;-47
2023/08/26 08:33:16;;;;;;;;;;;;;;;22.98;59.53;100982.94;5063242;28;19917;-47
2023/08/26 08:35:42;;;;;;;;;;;;;;;22.98;59.66;100985.66;5062243;28;20221;-44
2023/08/26 08:38:07;;;;;;;;;;;;;;;22.98;59.83;100974.81;5063603;28;19913;-46
2023/08/26 08:40:32;;;;;;;;;;;;;;;23.00;59.46;100986.28;5061246;28;20405;-44
2023/08/26 08:42:58;;;;;;;;;;;;;;;23.00;59.91;100977.31;5060864;28;19939;-44
2023/08/26 08:45:23;;;;;;;;;;;;;;;23.00;59.69;100974.59;5062098;28;19917;-44
2023/08/26 08:47:49;;;;;;;;;;;;;;;23.00;59.67;100971.91;5095029;28;19917;-45
2023/08/26 08:50:14;;;;;;;;;;;;;;;23.00;59.79;100971.91;5093350;28;19913;-44
2023/08/26 08:52:40;;;;;;;;;;;;;;;23.00;59.48;100972.72;5063353;28;19919;-43
2023/08/26 08:55:05;;;;;;;;;;;;;;;23.01;59.64;100970.84;5061608;28;19920;-44
2023/08/26 08:57:32;;;;;;;;;;;;;;;23.00;59.64;100975.44;5062217;28;19960;-49
2023/08/26 08:59:57;;;;;;;;;;;;;;;23.01;59.72;100971.69;5064083;28;19924;-45
2023/08/26 09:02:22;;;;;;;;;;;;;;;23.01;59.71;100976.28;5067405;28;19913;-44
2023/08/26 09:04:48;;;;;;;;;;;;;;;23.01;59.61;100971.69;5065338;28;19934;-48
2023/08/26 09:07:13;;;;;;;;;;;;;;;23.01;59.56;100971.69;5065655;28;20000;-47
2023/08/26 09:09:38;;;;;;;;;;;;;;;23.01;59.71;100966.28;5064756;28;19913;-45
2023/08/26 09:12:06;;;;;;;;;;;;;;;23.01;59.85;100960.84;5066699;28;19916;-49
2023/08/26 09:14:32;;;;;;;;;;;;;;;23.01;59.87;100970.84;5064268;28;19917;-46
2023/08/26 09:17:00;;;;;;;;;;;;;;;23.00;59.83;100970.03;5066601;28;19916;-50
2023/08/26 09:19:25;;;;;;;;;;;;;;;23.00;59.77;100975.44;5064955;28;19942;-47
2023/08/26 09:21:50;;;;;;;;;;;;;;;22.99;59.82;100964.81;5066541;28;19956;-45
2023/08/26 09:24:16;;;;;;;;;;;;;;;23.00;59.71;100966.47;5066369;28;19926;-46
2023/08/26 09:26:42;;;;;;;;;;;;;;;22.99;59.38;100970.22;5066234;28;20011;-49
2023/08/26 09:29:14;;;;;;;;;;;;;;;22.98;59.20;100966.69;5066587;28;19912;-46
2023/08/26 09:31:49;;;;;;;;;;;;;;;22.98;59.44;100974.81;5064600;28;19913;-48
2023/08/26 09:34:24;;;;;;;;;;;;;;;22.98;59.49;100968.53;5065694;28;19917;-44
2023/08/26 09:36:50;;;;;;;;;;;;;;;22.97;59.23;100970.41;5065997;28;19917;-46
2023/08/26 09:39:15;;;;;;;;;;;;;;;22.97;59.20;100964.97;5097745;28;20071;-49
2023/08/26 09:41:44;;;;;;;;;;;;;;;22.97;59.06;100972.28;5066279;28;19999;-44
2023/08/26 09:44:13;;;;;;;;;;;;;;;22.98;58.81;100977.53;5066580;28;19984;-44
2023/08/26 09:46:39;;;;;;;;;;;;;;;22.98;58.90;100977.53;5065917;28;19916;-47
2023/08/26 09:49:04;;;;;;;;;;;;;;;22.98;58.69;100972.09;5065806;28;19924;-49
2023/08/26 09:51:31;;;;;;;;;;;;;;;22.98;58.85;100974.81;5065919;28;19913;-49
2023/08/26 09:53:56;;;;;;;;;;;;;;;22.99;58.99;100972.94;5065912;28;19916;-47
2023/08/26 09:56:28;;;;;;;;;;;;;;;23.00;58.76;100980.88;5064969;28;19920;-48
2023/08/26 09:58:53;;;;;;;;;;;;;;;23.01;58.85;100984.41;5066344;28;19970;-48
2023/08/26 10:01:20;;;;;;;;;;;;;;;23.01;58.67;100974.41;5065652;28;19917;-48
2023/08/26 10:03:45;;;;;;;;;;;;;;;23.03;58.30;100980.50;5065753;28;19916;-48
2023/08/26 10:06:10;;;;;;;;;;;;;;;23.06;57.60;100973.81;5097543;28;19920;-47
2023/08/26 10:08:36;;;;;;;;;;;;;;;23.07;56.66;100973.66;5098120;28;19913;-47
2023/08/26 10:11:03;;;;;;;;;;;;;;;23.07;55.85;100979.06;5096792;28;19963;-45
2023/08/26 10:13:28;;;;;;;;;;;;;;;23.07;55.49;100984.50;5078108;28;19944;-46
2023/08/26 10:15:54;;;;;;;;;;;;;;;23.08;55.21;100979.91;5064183;28;19916;-50
2023/08/26 10:18:38;;;;;;;;;;;;;;;23.07;54.63;100972.81;5065549;28;19913;-47
2023/08/26 10:21:04;;;;;;;;;;;;;;;23.07;54.11;100973.66;5096568;28;19916;-46
2023/08/26 10:23:29;;;;;;;;;;;;;;;23.06;53.64;100979.25;5065862;28;19924;-43
2023/08/26 10:25:54;;;;;;;;;;;;;;;23.04;53.81;100975.91;5096873;28;19928;-47
2023/08/26 10:28:19;;;;;;;;;;;;;;;23.03;53.38;100974.22;5097708;28;20289;-48
2023/08/26 10:30:45;;;;;;;;;;;;;;;23.02;52.87;100978.78;5097461;28;19912;-45
2023/08/26 10:33:10;;;;;;;;;;;;;;;23.01;52.81;100987.13;5064295;28;19924;-47
2023/08/26 10:35:38;;;;;;;;;;;;;;;22.98;53.12;100984.78;5064416;28;19971;-45
2023/08/26 10:38:14;;;;;;;;;;;;;;;22.94;53.38;100992.50;5097615;28;19984;-47
2023/08/26 10:40:39;;;;;;;;;;;;;;;22.92;53.55;100989.97;5065093;28;19955;-48
2023/08/26 10:43:05;;;;;;;;;;;;;;;22.93;53.86;100994.34;5065063;28;19913;-48
2023/08/26 10:45:30;;;;;;;;;;;;;;;22.94;53.94;100987.91;5064937;28;19917;-46
2023/08/26 10:47:56;;;;;;;;;;;;;;;22.97;53.80;100988.53;5064705;28;20400;-48
2023/08/26 10:50:22;;;;;;;;;;;;;;;22.97;54.20;100985.84;5064564;28;20267;-49
2023/08/26 10:53:10;;;;;;;;;;;;;;;22.98;54.04;100982.09;5063468;28;19952;-46
2023/08/26 10:55:35;;;;;;;;;;;;;;;22.95;54.40;100986.03;5064335;28;19913;-48
2023/08/26 10:58:02;;;;;;;;;;;;;;;22.97;54.83;100983.13;5064268;28;20270;-49
2023/08/26 11:00:27;;;;;;;;;;;;;;;22.99;55.28;100986.50;5063815;28;20041;-44
2023/08/26 11:02:52;;;;;;;;;;;;;;;23.01;55.80;100987.97;5062605;28;19923;-46
2023/08/26 11:05:18;;;;;;;;;;;;;;;23.03;55.83;100976.94;5096403;28;19917;-45
2023/08/26 11:07:43;;;;;;;;;;;;;;;23.03;56.07;100985.91;5064594;28;20388;-44
2023/08/26 11:10:08;;;;;;;;;;;;;;;23.07;56.20;100981.78;5096469;28;20011;-44
2023/08/26 11:12:33;;;;;;;;;;;;;;;23.10;56.49;100985.97;5095877;28;19923;-45
2023/08/26 11:15:02;;;;;;;;;;;;;;;23.10;56.68;100984.09;5069369;28;19920;-47
2023/08/26 11:17:28;;;;;;;;;;;;;;;23.12;56.94;100983.91;5064937;28;20008;-46
2023/08/26 11:19:53;;;;;;;;;;;;;;;23.12;57.13;100983.91;5063905;28;19916;-47
2023/08/26 11:22:23;;;;;;;;;;;;;;;23.12;57.23;100992.03;5064517;28;19913;-46
2023/08/26 11:24:48;;;;;;;;;;;;;;;23.14;57.30;100992.66;5062363;28;20250;-45
2023/08/26 11:27:13;;;;;;;;;;;;;;;23.16;57.42;100982.47;5060339;28;19923;-47
2023/08/26 11:29:38;;;;;;;;;;;;;;;23.16;57.50;100982.47;5061105;28;19917;-46
2023/08/26 11:32:04;;;;;;;;;;;;;;;23.18;57.42;100981.22;5059625;28;19920;-50
2023/08/26 11:34:29;;;;;;;;;;;;;;;23.22;57.46;100980.84;5063692;28;19920;-47
2023/08/26 11:36:54;;;;;;;;;;;;;;;23.24;57.57;100984.22;5064039;28;19972;-47
2023/08/26 11:39:20;;;;;;;;;;;;;;;23.27;57.64;100979.22;5063453;28;19927;-46
2023/08/26 11:41:45;;;;;;;;;;;;;;;23.30;57.68;100978.00;5063610;28;19913;-50
2023/08/26 11:44:14;;;;;;;;;;;;;;;23.31;57.76;100980.50;5063955;28;19949;-48
2023/08/26 11:46:39;;;;;;;;;;;;;;;23.34;57.80;100971.16;5063834;28;19991;-47
2023/08/26 11:49:05;;;;;;;;;;;;;;;23.34;57.92;100974.69;5063772;28;19943;-47
2023/08/26 11:51:30;;;;;;;;;;;;;;;23.36;57.76;100974.50;5078570;28;20358;-46
2023/08/26 11:53:55;;;;;;;;;;;;;;;23.37;57.60;100974.31;5063809;28;19944;-50
2023/08/26 11:56:20;;;;;;;;;;;;;;;23.38;57.83;100975.16;5063253;28;19913;-48
2023/08/26 11:58:46;;;;;;;;;;;;;;;23.39;57.75;100976.81;5064169;28;19959;-49
2023/08/26 12:01:12;;;;;;;;;;;;;;;23.40;57.88;100976.59;5061591;28;19920;-47
2023/08/26 12:03:42;;;;;;;;;;;;;;;23.39;58.01;100985.78;5063445;28;19916;-49
2023/08/26 12:06:07;;;;;;;;;;;;;;;23.42;57.98;100979.97;5063100;28;19912;-46
2023/08/26 12:08:33;;;;;;;;;;;;;;;23.44;58.08;100980.59;5095757;28;19947;-50
2023/08/26 12:10:58;;;;;;;;;;;;;;;23.47;57.95;100990.25;5064117;28;19956;-49
2023/08/26 12:13:23;;;;;;;;;;;;;;;23.48;57.89;100988.38;5063439;28;20336;-48
2023/08/26 12:15:49;;;;;;;;;;;;;;;23.47;58.02;100992.13;5078378;28;20514;-49
2023/08/26 12:18:14;;;;;;;;;;;;;;;23.46;58.17;100985.88;5063766;28;19973;-50
2023/08/26 12:20:44;;;;;;;;;;;;;;;23.45;58.32;100993.16;5061693;28;19924;-47
2023/08/26 12:23:09;;;;;;;;;;;;;;;23.44;58.12;100994.19;5063751;28;19921;-48
2023/08/26 12:25:35;;;;;;;;;;;;;;;23.44;58.24;100987.91;5062938;28;19931;-47
2023/08/26 12:28:10;;;;;;;;;;;;;;;23.42;58.41;100988.13;5063103;28;19913;-46